sensor_id;sensor_type;location;lat;lon;timestamp;P1;durP1;ratioP1;P2;durP2;ratioP2
962;SDS011;469;48.770;9.176;2022-07-22T00:01:38;10.65;;;6.00;;
962;SDS011;469;48.770;9.176;2022-07-22T00:04:05;12.13;;;5.90;;
962;SDS011;469;48.770;9.176;2022-07-22T00:06:32;11.90;;;6.25;;
962;SDS011;469;48.770;9.176;2022-07-22T00:08:59;9.88;;;5.88;;
962;SDS011;469;48.770;9.176;2022-07-22T00:11:28;9.98;;;6.47;;
962;SDS011;469;48.770;9.176;2022-07-22T00:13:55;11.68;;;5.97;;
962;SDS011;469;48.770;9.176;2022-07-22T00:16:22;12.23;;;6.47;;
962;SDS011;469;48.770;9.176;2022-07-22T00:18:49;13.45;;;7.00;;
962;SDS011;469;48.770;9.176;2022-07-22T00:21:16;12.50;;;7.22;;
962;SDS011;469;48.770;9.176;2022-07-22T00:23:43;12.65;;;7.65;;
962;SDS011;469;48.770;9.176;2022-07-22T00:26:10;20.52;;;7.50;;
962;SDS011;469;48.770;9.176;2022-07-22T00:28:38;10.30;;;6.75;;
962;SDS011;469;48.770;9.176;2022-07-22T00:31:05;10.40;;;6.78;;
962;SDS011;469;48.770;9.176;2022-07-22T00:33:32;12.73;;;6.45;;
962;SDS011;469;48.770;9.176;2022-07-22T00:35:59;10.75;;;6.40;;
962;SDS011;469;48.770;9.176;2022-07-22T00:38:26;13.15;;;6.30;;
962;SDS011;469;48.770;9.176;2022-07-22T00:40:53;10.38;;;6.38;;
962;SDS011;469;48.770;9.176;2022-07-22T00:43:20;9.40;;;5.97;;
962;SDS011;469;48.770;9.176;2022-07-22T00:45:49;12.02;;;6.22;;
962;SDS011;469;48.770;9.176;2022-07-22T00:48:16;16.17;;;6.18;;
962;SDS011;469;48.770;9.176;2022-07-22T00:50:43;12.85;;;6.80;;
962;SDS011;469;48.770;9.176;2022-07-22T00:53:11;11.35;;;6.55;;
962;SDS011;469;48.770;9.176;2022-07-22T00:55:38;8.57;;;6.30;;
962;SDS011;469;48.770;9.176;2022-07-22T00:58:05;9.73;;;6.10;;
962;SDS011;469;48.770;9.176;2022-07-22T01:00:32;11.50;;;7.10;;
962;SDS011;469;48.770;9.176;2022-07-22T01:03:01;9.68;;;6.60;;
962;SDS011;469;48.770;9.176;2022-07-22T01:05:28;12.32;;;7.07;;
962;SDS011;469;48.770;9.176;2022-07-22T01:07:55;13.32;;;7.72;;
962;SDS011;469;48.770;9.176;2022-07-22T01:10:22;11.57;;;7.25;;
962;SDS011;469;48.770;9.176;2022-07-22T01:12:49;8.98;;;5.63;;
962;SDS011;469;48.770;9.176;2022-07-22T01:15:16;11.90;;;6.20;;
962;SDS011;469;48.770;9.176;2022-07-22T01:17:43;12.25;;;6.63;;
962;SDS011;469;48.770;9.176;2022-07-22T01:20:12;10.52;;;6.95;;
962;SDS011;469;48.770;9.176;2022-07-22T01:22:39;13.52;;;7.13;;
962;SDS011;469;48.770;9.176;2022-07-22T01:25:06;9.30;;;5.85;;
962;SDS011;469;48.770;9.176;2022-07-22T01:27:33;17.40;;;6.82;;
962;SDS011;469;48.770;9.176;2022-07-22T01:30:01;9.30;;;6.35;;
962;SDS011;469;48.770;9.176;2022-07-22T01:32:28;12.88;;;7.30;;
962;SDS011;469;48.770;9.176;2022-07-22T01:34:55;10.23;;;6.60;;
962;SDS011;469;48.770;9.176;2022-07-22T01:37:24;9.35;;;6.43;;
962;SDS011;469;48.770;9.176;2022-07-22T01:39:51;10.23;;;6.38;;
962;SDS011;469;48.770;9.176;2022-07-22T01:42:18;12.75;;;7.30;;
962;SDS011;469;48.770;9.176;2022-07-22T01:44:45;10.35;;;6.72;;
962;SDS011;469;48.770;9.176;2022-07-22T01:47:12;11.77;;;6.53;;
962;SDS011;469;48.770;9.176;2022-07-22T01:49:39;11.50;;;6.57;;
962;SDS011;469;48.770;9.176;2022-07-22T01:52:06;12.27;;;6.90;;
962;SDS011;469;48.770;9.176;2022-07-22T01:54:34;9.23;;;6.82;;
962;SDS011;469;48.770;9.176;2022-07-22T01:57:02;10.55;;;6.45;;
962;SDS011;469;48.770;9.176;2022-07-22T01:59:29;12.60;;;7.07;;
962;SDS011;469;48.770;9.176;2022-07-22T02:01:56;11.18;;;6.70;;
962;SDS011;469;48.770;9.176;2022-07-22T02:04:23;15.02;;;6.78;;
962;SDS011;469;48.770;9.176;2022-07-22T02:06:50;9.65;;;6.40;;
962;SDS011;469;48.770;9.176;2022-07-22T02:09:17;11.93;;;6.20;;
962;SDS011;469;48.770;9.176;2022-07-22T02:11:45;10.13;;;6.38;;
962;SDS011;469;48.770;9.176;2022-07-22T02:14:13;10.05;;;6.78;;
962;SDS011;469;48.770;9.176;2022-07-22T02:16:40;10.70;;;7.40;;
962;SDS011;469;48.770;9.176;2022-07-22T02:19:07;16.33;;;7.50;;
962;SDS011;469;48.770;9.176;2022-07-22T02:21:34;10.55;;;7.15;;
962;SDS011;469;48.770;9.176;2022-07-22T02:24:01;10.10;;;6.18;;
962;SDS011;469;48.770;9.176;2022-07-22T02:26:28;11.98;;;6.82;;
962;SDS011;469;48.770;9.176;2022-07-22T02:28:56;11.27;;;6.22;;
962;SDS011;469;48.770;9.176;2022-07-22T02:31:23;9.63;;;6.25;;
962;SDS011;469;48.770;9.176;2022-07-22T02:33:51;13.45;;;7.07;;
962;SDS011;469;48.770;9.176;2022-07-22T02:36:18;15.38;;;7.20;;
962;SDS011;469;48.770;9.176;2022-07-22T02:38:45;14.75;;;7.40;;
962;SDS011;469;48.770;9.176;2022-07-22T02:41:12;20.30;;;9.80;;
962;SDS011;469;48.770;9.176;2022-07-22T02:43:39;11.90;;;7.97;;
962;SDS011;469;48.770;9.176;2022-07-22T02:46:07;13.85;;;7.20;;
962;SDS011;469;48.770;9.176;2022-07-22T02:48:34;18.25;;;7.55;;
962;SDS011;469;48.770;9.176;2022-07-22T02:51:01;17.67;;;7.05;;
962;SDS011;469;48.770;9.176;2022-07-22T02:53:28;11.20;;;7.13;;
962;SDS011;469;48.770;9.176;2022-07-22T02:55:55;13.57;;;7.90;;
962;SDS011;469;48.770;9.176;2022-07-22T02:58:22;11.30;;;6.18;;
962;SDS011;469;48.770;9.176;2022-07-22T03:00:49;12.95;;;8.15;;
962;SDS011;469;48.770;9.176;2022-07-22T03:03:18;13.18;;;6.80;;
962;SDS011;469;48.770;9.176;2022-07-22T03:05:45;14.90;;;7.32;;
962;SDS011;469;48.770;9.176;2022-07-22T03:08:12;10.20;;;6.65;;
962;SDS011;469;48.770;9.176;2022-07-22T03:10:39;13.27;;;7.57;;
962;SDS011;469;48.770;9.176;2022-07-22T03:13:06;12.93;;;6.78;;
962;SDS011;469;48.770;9.176;2022-07-22T03:15:33;9.88;;;7.10;;
962;SDS011;469;48.770;9.176;2022-07-22T03:18:00;16.83;;;8.20;;
962;SDS011;469;48.770;9.176;2022-07-22T03:20:29;13.68;;;8.20;;
962;SDS011;469;48.770;9.176;2022-07-22T03:22:56;13.82;;;7.65;;
962;SDS011;469;48.770;9.176;2022-07-22T03:25:23;17.80;;;8.27;;
962;SDS011;469;48.770;9.176;2022-07-22T03:27:50;15.70;;;8.00;;
962;SDS011;469;48.770;9.176;2022-07-22T03:30:17;13.85;;;7.60;;
962;SDS011;469;48.770;9.176;2022-07-22T03:32:44;16.40;;;8.45;;
962;SDS011;469;48.770;9.176;2022-07-22T03:35:11;17.13;;;9.55;;
962;SDS011;469;48.770;9.176;2022-07-22T03:37:40;17.85;;;9.45;;
962;SDS011;469;48.770;9.176;2022-07-22T03:40:07;15.95;;;9.20;;
962;SDS011;469;48.770;9.176;2022-07-22T03:42:35;16.63;;;10.48;;
962;SDS011;469;48.770;9.176;2022-07-22T03:45:02;20.92;;;9.55;;
962;SDS011;469;48.770;9.176;2022-07-22T03:47:29;18.98;;;9.95;;
962;SDS011;469;48.770;9.176;2022-07-22T03:49:56;19.45;;;9.88;;
962;SDS011;469;48.770;9.176;2022-07-22T03:52:24;17.48;;;9.57;;
962;SDS011;469;48.770;9.176;2022-07-22T03:54:52;21.45;;;9.48;;
962;SDS011;469;48.770;9.176;2022-07-22T03:57:19;14.05;;;9.10;;
962;SDS011;469;48.770;9.176;2022-07-22T03:59:46;16.95;;;9.82;;
962;SDS011;469;48.770;9.176;2022-07-22T04:02:13;17.48;;;9.23;;
962;SDS011;469;48.770;9.176;2022-07-22T04:04:40;15.60;;;8.98;;
962;SDS011;469;48.770;9.176;2022-07-22T04:07:07;17.85;;;9.40;;
962;SDS011;469;48.770;9.176;2022-07-22T04:09:34;12.55;;;9.02;;
962;SDS011;469;48.770;9.176;2022-07-22T04:12:03;16.77;;;10.43;;
962;SDS011;469;48.770;9.176;2022-07-22T04:14:30;12.02;;;7.80;;
962;SDS011;469;48.770;9.176;2022-07-22T04:16:57;15.10;;;8.20;;
962;SDS011;469;48.770;9.176;2022-07-22T04:19:24;13.85;;;8.00;;
962;SDS011;469;48.770;9.176;2022-07-22T04:21:51;20.48;;;8.70;;
962;SDS011;469;48.770;9.176;2022-07-22T04:24:18;16.27;;;8.40;;
962;SDS011;469;48.770;9.176;2022-07-22T04:26:45;16.45;;;9.00;;
962;SDS011;469;48.770;9.176;2022-07-22T04:29:14;16.58;;;9.55;;
962;SDS011;469;48.770;9.176;2022-07-22T04:31:41;14.15;;;8.60;;
962;SDS011;469;48.770;9.176;2022-07-22T04:34:08;15.93;;;9.07;;
962;SDS011;469;48.770;9.176;2022-07-22T04:36:35;19.13;;;9.80;;
962;SDS011;469;48.770;9.176;2022-07-22T04:39:02;15.75;;;9.70;;
962;SDS011;469;48.770;9.176;2022-07-22T04:41:30;12.85;;;9.15;;
962;SDS011;469;48.770;9.176;2022-07-22T04:43:57;18.48;;;9.88;;
962;SDS011;469;48.770;9.176;2022-07-22T04:46:25;13.10;;;9.15;;
962;SDS011;469;48.770;9.176;2022-07-22T04:48:52;14.63;;;9.35;;
962;SDS011;469;48.770;9.176;2022-07-22T04:51:19;23.92;;;10.00;;
962;SDS011;469;48.770;9.176;2022-07-22T04:53:46;22.48;;;10.45;;
962;SDS011;469;48.770;9.176;2022-07-22T04:56:16;14.20;;;9.35;;
962;SDS011;469;48.770;9.176;2022-07-22T04:58:49;17.70;;;9.52;;
962;SDS011;469;48.770;9.176;2022-07-22T05:01:20;15.07;;;9.35;;
962;SDS011;469;48.770;9.176;2022-07-22T05:03:56;18.83;;;9.65;;
962;SDS011;469;48.770;9.176;2022-07-22T05:06:25;17.02;;;9.95;;
962;SDS011;469;48.770;9.176;2022-07-22T05:08:53;20.08;;;10.45;;
962;SDS011;469;48.770;9.176;2022-07-22T05:11:20;16.17;;;10.00;;
962;SDS011;469;48.770;9.176;2022-07-22T05:13:50;13.63;;;9.45;;
962;SDS011;469;48.770;9.176;2022-07-22T05:16:17;15.30;;;9.60;;
962;SDS011;469;48.770;9.176;2022-07-22T05:18:46;16.80;;;10.05;;
962;SDS011;469;48.770;9.176;2022-07-22T05:21:17;17.23;;;9.45;;
962;SDS011;469;48.770;9.176;2022-07-22T05:23:44;18.15;;;9.50;;
962;SDS011;469;48.770;9.176;2022-07-22T05:26:14;15.38;;;10.63;;
962;SDS011;469;48.770;9.176;2022-07-22T05:28:54;17.58;;;10.68;;
962;SDS011;469;48.770;9.176;2022-07-22T05:31:22;16.60;;;9.70;;
962;SDS011;469;48.770;9.176;2022-07-22T05:33:51;26.05;;;10.50;;
962;SDS011;469;48.770;9.176;2022-07-22T05:36:20;23.90;;;11.65;;
962;SDS011;469;48.770;9.176;2022-07-22T05:38:50;16.38;;;10.77;;
962;SDS011;469;48.770;9.176;2022-07-22T05:41:17;26.77;;;11.32;;
962;SDS011;469;48.770;9.176;2022-07-22T05:43:58;21.30;;;10.85;;
962;SDS011;469;48.770;9.176;2022-07-22T05:46:25;21.25;;;11.25;;
962;SDS011;469;48.770;9.176;2022-07-22T05:49:08;19.00;;;10.70;;
962;SDS011;469;48.770;9.176;2022-07-22T05:51:49;18.05;;;11.15;;
962;SDS011;469;48.770;9.176;2022-07-22T05:54:20;24.88;;;11.25;;
962;SDS011;469;48.770;9.176;2022-07-22T05:57:01;19.35;;;10.57;;
962;SDS011;469;48.770;9.176;2022-07-22T05:59:33;18.33;;;11.20;;
962;SDS011;469;48.770;9.176;2022-07-22T06:02:02;19.42;;;11.00;;
962;SDS011;469;48.770;9.176;2022-07-22T06:04:36;19.25;;;11.18;;
962;SDS011;469;48.770;9.176;2022-07-22T06:07:21;20.58;;;9.88;;
962;SDS011;469;48.770;9.176;2022-07-22T06:09:49;19.60;;;10.85;;
962;SDS011;469;48.770;9.176;2022-07-22T06:12:19;15.77;;;10.45;;
962;SDS011;469;48.770;9.176;2022-07-22T06:14:56;24.25;;;11.02;;
962;SDS011;469;48.770;9.176;2022-07-22T06:17:26;18.15;;;10.40;;
962;SDS011;469;48.770;9.176;2022-07-22T06:19:57;21.45;;;11.45;;
962;SDS011;469;48.770;9.176;2022-07-22T06:22:27;18.55;;;11.32;;
962;SDS011;469;48.770;9.176;2022-07-22T06:24:55;19.05;;;10.77;;
962;SDS011;469;48.770;9.176;2022-07-22T06:27:25;19.42;;;10.63;;
962;SDS011;469;48.770;9.176;2022-07-22T06:29:54;20.25;;;10.70;;
962;SDS011;469;48.770;9.176;2022-07-22T06:32:27;18.80;;;11.07;;
962;SDS011;469;48.770;9.176;2022-07-22T06:34:57;20.88;;;11.20;;
962;SDS011;469;48.770;9.176;2022-07-22T06:37:39;27.15;;;10.80;;
962;SDS011;469;48.770;9.176;2022-07-22T06:40:16;15.88;;;10.57;;
962;SDS011;469;48.770;9.176;2022-07-22T06:43:03;16.92;;;10.23;;
962;SDS011;469;48.770;9.176;2022-07-22T06:45:31;18.70;;;10.80;;
962;SDS011;469;48.770;9.176;2022-07-22T06:50:58;17.63;;;9.80;;
962;SDS011;469;48.770;9.176;2022-07-22T06:53:29;15.60;;;9.82;;
962;SDS011;469;48.770;9.176;2022-07-22T06:55:56;16.80;;;10.10;;
962;SDS011;469;48.770;9.176;2022-07-22T06:58:23;21.20;;;11.55;;
962;SDS011;469;48.770;9.176;2022-07-22T07:00:52;17.33;;;10.40;;
962;SDS011;469;48.770;9.176;2022-07-22T07:03:27;15.90;;;10.40;;
962;SDS011;469;48.770;9.176;2022-07-22T07:06:01;17.42;;;10.85;;
962;SDS011;469;48.770;9.176;2022-07-22T07:08:33;21.92;;;11.57;;
962;SDS011;469;48.770;9.176;2022-07-22T07:11:17;16.42;;;10.30;;
962;SDS011;469;48.770;9.176;2022-07-22T07:13:55;19.73;;;10.73;;
962;SDS011;469;48.770;9.176;2022-07-22T07:16:35;16.30;;;10.73;;
962;SDS011;469;48.770;9.176;2022-07-22T07:19:19;19.65;;;10.65;;
962;SDS011;469;48.770;9.176;2022-07-22T07:21:56;16.98;;;11.02;;
962;SDS011;469;48.770;9.176;2022-07-22T07:24:34;17.27;;;10.82;;
962;SDS011;469;48.770;9.176;2022-07-22T07:27:14;16.05;;;10.35;;
962;SDS011;469;48.770;9.176;2022-07-22T07:32:40;20.77;;;10.70;;
962;SDS011;469;48.770;9.176;2022-07-22T07:35:23;18.10;;;9.90;;
962;SDS011;469;48.770;9.176;2022-07-22T07:37:55;18.83;;;11.20;;
962;SDS011;469;48.770;9.176;2022-07-22T07:40:30;26.08;;;10.27;;
962;SDS011;469;48.770;9.176;2022-07-22T07:43:19;20.67;;;10.10;;
962;SDS011;469;48.770;9.176;2022-07-22T07:46:09;20.73;;;11.48;;
962;SDS011;469;48.770;9.176;2022-07-22T07:48:44;18.23;;;10.55;;
962;SDS011;469;48.770;9.176;2022-07-22T07:51:42;16.65;;;10.30;;
962;SDS011;469;48.770;9.176;2022-07-22T07:54:22;21.60;;;11.60;;
962;SDS011;469;48.770;9.176;2022-07-22T07:57:17;15.85;;;10.98;;
962;SDS011;469;48.770;9.176;2022-07-22T08:00:08;16.80;;;10.75;;
962;SDS011;469;48.770;9.176;2022-07-22T08:04:17;16.55;;;9.80;;
962;SDS011;469;48.770;9.176;2022-07-22T08:05:48;18.20;;;11.82;;
962;SDS011;469;48.770;9.176;2022-07-22T08:08:29;18.40;;;10.63;;
962;SDS011;469;48.770;9.176;2022-07-22T08:11:12;24.75;;;11.82;;
962;SDS011;469;48.770;9.176;2022-07-22T08:13:54;18.67;;;11.18;;
962;SDS011;469;48.770;9.176;2022-07-22T08:16:36;19.90;;;10.75;;
962;SDS011;469;48.770;9.176;2022-07-22T08:19:05;20.40;;;10.70;;
962;SDS011;469;48.770;9.176;2022-07-22T08:21:36;14.70;;;10.05;;
962;SDS011;469;48.770;9.176;2022-07-22T08:24:27;23.10;;;10.75;;
962;SDS011;469;48.770;9.176;2022-07-22T08:27:10;18.50;;;10.55;;
962;SDS011;469;48.770;9.176;2022-07-22T08:29:53;20.33;;;10.90;;
962;SDS011;469;48.770;9.176;2022-07-22T08:32:33;25.13;;;10.90;;
962;SDS011;469;48.770;9.176;2022-07-22T08:35:04;19.50;;;10.10;;
962;SDS011;469;48.770;9.176;2022-07-22T08:37:56;17.00;;;10.45;;
962;SDS011;469;48.770;9.176;2022-07-22T08:40:25;18.90;;;10.05;;
962;SDS011;469;48.770;9.176;2022-07-22T08:43:02;21.30;;;10.93;;
962;SDS011;469;48.770;9.176;2022-07-22T08:45:38;15.57;;;9.70;;
962;SDS011;469;48.770;9.176;2022-07-22T08:48:35;15.13;;;9.95;;
962;SDS011;469;48.770;9.176;2022-07-22T08:51:30;15.88;;;10.43;;
962;SDS011;469;48.770;9.176;2022-07-22T08:54:15;16.63;;;9.95;;
962;SDS011;469;48.770;9.176;2022-07-22T09:00:00;20.58;;;10.00;;
962;SDS011;469;48.770;9.176;2022-07-22T09:02:59;21.08;;;10.55;;
962;SDS011;469;48.770;9.176;2022-07-22T09:06:00;16.50;;;9.07;;
962;SDS011;469;48.770;9.176;2022-07-22T09:08:35;14.73;;;10.32;;
962;SDS011;469;48.770;9.176;2022-07-22T09:23:17;17.75;;;9.00;;
962;SDS011;469;48.770;9.176;2022-07-22T09:29:12;15.38;;;9.20;;
962;SDS011;469;48.770;9.176;2022-07-22T09:31:43;12.82;;;9.45;;
962;SDS011;469;48.770;9.176;2022-07-22T09:34:25;15.55;;;8.13;;
962;SDS011;469;48.770;9.176;2022-07-22T09:36:53;17.52;;;8.57;;
962;SDS011;469;48.770;9.176;2022-07-22T09:39:28;14.45;;;8.68;;
962;SDS011;469;48.770;9.176;2022-07-22T09:41:58;14.68;;;8.93;;
962;SDS011;469;48.770;9.176;2022-07-22T09:44:29;16.98;;;9.05;;
962;SDS011;469;48.770;9.176;2022-07-22T09:46:56;12.90;;;8.57;;
962;SDS011;469;48.770;9.176;2022-07-22T09:49:30;16.08;;;7.88;;
962;SDS011;469;48.770;9.176;2022-07-22T09:51:57;16.02;;;8.30;;
962;SDS011;469;48.770;9.176;2022-07-22T09:54:24;12.23;;;8.27;;
962;SDS011;469;48.770;9.176;2022-07-22T09:56:55;12.70;;;8.13;;
962;SDS011;469;48.770;9.176;2022-07-22T09:59:23;12.55;;;7.88;;
962;SDS011;469;48.770;9.176;2022-07-22T10:01:51;12.48;;;9.00;;
962;SDS011;469;48.770;9.176;2022-07-22T10:04:20;17.00;;;8.13;;
962;SDS011;469;48.770;9.176;2022-07-22T10:06:48;14.20;;;8.43;;
962;SDS011;469;48.770;9.176;2022-07-22T10:09:17;20.17;;;8.30;;
962;SDS011;469;48.770;9.176;2022-07-22T10:11:47;12.15;;;8.40;;
962;SDS011;469;48.770;9.176;2022-07-22T10:14:16;19.10;;;8.55;;
962;SDS011;469;48.770;9.176;2022-07-22T10:16:44;13.23;;;7.82;;
962;SDS011;469;48.770;9.176;2022-07-22T10:19:11;13.50;;;8.13;;
962;SDS011;469;48.770;9.176;2022-07-22T10:21:38;15.40;;;7.93;;
962;SDS011;469;48.770;9.176;2022-07-22T10:24:07;16.52;;;8.40;;
962;SDS011;469;48.770;9.176;2022-07-22T10:26:48;13.05;;;8.52;;
962;SDS011;469;48.770;9.176;2022-07-22T10:29:30;12.18;;;7.63;;
962;SDS011;469;48.770;9.176;2022-07-22T10:35:19;17.92;;;8.38;;
962;SDS011;469;48.770;9.176;2022-07-22T10:37:36;12.30;;;7.63;;
962;SDS011;469;48.770;9.176;2022-07-22T10:40:09;11.23;;;8.30;;
962;SDS011;469;48.770;9.176;2022-07-22T10:45:25;12.38;;;7.60;;
962;SDS011;469;48.770;9.176;2022-07-22T10:47:55;14.93;;;8.35;;
962;SDS011;469;48.770;9.176;2022-07-22T10:50:44;12.10;;;7.68;;
962;SDS011;469;48.770;9.176;2022-07-22T10:53:12;15.82;;;7.20;;
962;SDS011;469;48.770;9.176;2022-07-22T10:58:41;9.85;;;6.95;;
962;SDS011;469;48.770;9.176;2022-07-22T11:01:10;11.07;;;7.38;;
962;SDS011;469;48.770;9.176;2022-07-22T11:06:41;12.82;;;7.50;;
962;SDS011;469;48.770;9.176;2022-07-22T11:09:34;16.20;;;7.45;;
962;SDS011;469;48.770;9.176;2022-07-22T11:24:47;15.02;;;7.43;;
962;SDS011;469;48.770;9.176;2022-07-22T11:30:43;10.97;;;6.93;;
962;SDS011;469;48.770;9.176;2022-07-22T11:33:41;10.60;;;6.77;;
962;SDS011;469;48.770;9.176;2022-07-22T11:36:40;16.30;;;6.30;;
962;SDS011;469;48.770;9.176;2022-07-22T11:54:38;9.13;;;5.80;;
962;SDS011;469;48.770;9.176;2022-07-22T11:57:05;13.17;;;7.10;;
962;SDS011;469;48.770;9.176;2022-07-22T11:59:32;12.63;;;5.90;;
962;SDS011;469;48.770;9.176;2022-07-22T12:02:00;9.63;;;5.60;;
962;SDS011;469;48.770;9.176;2022-07-22T12:04:28;11.77;;;6.50;;
962;SDS011;469;48.770;9.176;2022-07-22T12:06:57;8.70;;;6.23;;
962;SDS011;469;48.770;9.176;2022-07-22T12:09:26;8.87;;;6.13;;
962;SDS011;469;48.770;9.176;2022-07-22T12:11:57;11.00;;;5.90;;
962;SDS011;469;48.770;9.176;2022-07-22T12:14:28;7.80;;;5.33;;
962;SDS011;469;48.770;9.176;2022-07-22T12:16:56;7.23;;;5.57;;
962;SDS011;469;48.770;9.176;2022-07-22T12:19:25;10.23;;;5.73;;
962;SDS011;469;48.770;9.176;2022-07-22T12:21:56;12.83;;;5.53;;
962;SDS011;469;48.770;9.176;2022-07-22T12:24:27;12.93;;;7.07;;
962;SDS011;469;48.770;9.176;2022-07-22T12:26:57;8.23;;;6.27;;
962;SDS011;469;48.770;9.176;2022-07-22T12:29:27;7.57;;;5.33;;
962;SDS011;469;48.770;9.176;2022-07-22T12:31:56;7.37;;;5.50;;
962;SDS011;469;48.770;9.176;2022-07-22T12:34:34;10.83;;;5.20;;
962;SDS011;469;48.770;9.176;2022-07-22T12:37:11;8.37;;;5.00;;
962;SDS011;469;48.770;9.176;2022-07-22T12:39:38;7.30;;;5.00;;
962;SDS011;469;48.770;9.176;2022-07-22T12:42:16;7.10;;;5.60;;
962;SDS011;469;48.770;9.176;2022-07-22T12:44:50;10.63;;;5.50;;
962;SDS011;469;48.770;9.176;2022-07-22T12:47:17;12.30;;;8.70;;
962;SDS011;469;48.770;9.176;2022-07-22T12:49:49;7.73;;;5.07;;
962;SDS011;469;48.770;9.176;2022-07-22T12:52:16;9.00;;;5.80;;
962;SDS011;469;48.770;9.176;2022-07-22T12:54:43;9.27;;;5.63;;
962;SDS011;469;48.770;9.176;2022-07-22T12:57:13;7.40;;;5.73;;
962;SDS011;469;48.770;9.176;2022-07-22T13:00:00;9.87;;;5.77;;
962;SDS011;469;48.770;9.176;2022-07-22T13:02:27;11.80;;;5.70;;
962;SDS011;469;48.770;9.176;2022-07-22T13:04:55;10.63;;;6.07;;
962;SDS011;469;48.770;9.176;2022-07-22T13:07:22;8.13;;;5.83;;
962;SDS011;469;48.770;9.176;2022-07-22T13:09:49;8.63;;;5.90;;
962;SDS011;469;48.770;9.176;2022-07-22T13:12:16;12.23;;;6.17;;
962;SDS011;469;48.770;9.176;2022-07-22T13:14:43;12.33;;;6.50;;
962;SDS011;469;48.770;9.176;2022-07-22T13:17:11;15.20;;;5.63;;
962;SDS011;469;48.770;9.176;2022-07-22T13:19:40;7.23;;;5.00;;
962;SDS011;469;48.770;9.176;2022-07-22T13:22:08;6.43;;;4.90;;
962;SDS011;469;48.770;9.176;2022-07-22T13:24:36;7.07;;;4.87;;
962;SDS011;469;48.770;9.176;2022-07-22T13:27:03;7.43;;;4.97;;
962;SDS011;469;48.770;9.176;2022-07-22T13:29:30;8.67;;;5.60;;
962;SDS011;469;48.770;9.176;2022-07-22T13:32:00;7.37;;;4.83;;
962;SDS011;469;48.770;9.176;2022-07-22T13:34:29;7.43;;;4.73;;
962;SDS011;469;48.770;9.176;2022-07-22T13:36:56;10.00;;;5.80;;
962;SDS011;469;48.770;9.176;2022-07-22T13:39:23;10.73;;;5.23;;
962;SDS011;469;48.770;9.176;2022-07-22T13:41:50;9.50;;;5.20;;
962;SDS011;469;48.770;9.176;2022-07-22T13:44:17;11.60;;;4.77;;
962;SDS011;469;48.770;9.176;2022-07-22T13:46:44;6.60;;;4.87;;
962;SDS011;469;48.770;9.176;2022-07-22T13:49:11;7.17;;;4.43;;
962;SDS011;469;48.770;9.176;2022-07-22T13:51:40;7.47;;;4.83;;
962;SDS011;469;48.770;9.176;2022-07-22T13:54:07;8.90;;;4.90;;
962;SDS011;469;48.770;9.176;2022-07-22T13:56:36;7.73;;;5.10;;
962;SDS011;469;48.770;9.176;2022-07-22T13:59:03;7.20;;;4.47;;
962;SDS011;469;48.770;9.176;2022-07-22T14:01:30;7.83;;;4.70;;
962;SDS011;469;48.770;9.176;2022-07-22T14:03:57;9.70;;;4.97;;
962;SDS011;469;48.770;9.176;2022-07-22T14:06:25;5.73;;;4.30;;
962;SDS011;469;48.770;9.176;2022-07-22T14:08:56;11.50;;;5.20;;
962;SDS011;469;48.770;9.176;2022-07-22T14:11:23;10.60;;;5.00;;
962;SDS011;469;48.770;9.176;2022-07-22T14:13:50;10.83;;;4.70;;
962;SDS011;469;48.770;9.176;2022-07-22T14:16:17;6.00;;;4.47;;
962;SDS011;469;48.770;9.176;2022-07-22T14:19:03;8.13;;;4.27;;
962;SDS011;469;48.770;9.176;2022-07-22T14:21:35;6.70;;;3.43;;
962;SDS011;469;48.770;9.176;2022-07-22T14:24:05;8.40;;;3.90;;
962;SDS011;469;48.770;9.176;2022-07-22T14:26:33;7.73;;;4.10;;
962;SDS011;469;48.770;9.176;2022-07-22T14:29:00;5.20;;;4.03;;
962;SDS011;469;48.770;9.176;2022-07-22T14:31:28;10.40;;;5.40;;
962;SDS011;469;48.770;9.176;2022-07-22T14:33:57;6.90;;;5.20;;
962;SDS011;469;48.770;9.176;2022-07-22T14:36:28;8.80;;;4.87;;
962;SDS011;469;48.770;9.176;2022-07-22T14:38:56;6.40;;;4.13;;
962;SDS011;469;48.770;9.176;2022-07-22T14:41:24;9.70;;;4.87;;
962;SDS011;469;48.770;9.176;2022-07-22T14:43:52;6.43;;;4.40;;
962;SDS011;469;48.770;9.176;2022-07-22T14:46:20;5.53;;;3.50;;
962;SDS011;469;48.770;9.176;2022-07-22T14:48:47;9.60;;;4.17;;
962;SDS011;469;48.770;9.176;2022-07-22T14:51:17;6.47;;;4.50;;
962;SDS011;469;48.770;9.176;2022-07-22T14:53:45;5.60;;;4.00;;
962;SDS011;469;48.770;9.176;2022-07-22T14:56:12;4.60;;;4.20;;
962;SDS011;469;48.770;9.176;2022-07-22T14:58:42;7.23;;;4.27;;
962;SDS011;469;48.770;9.176;2022-07-22T15:01:09;5.00;;;4.03;;
962;SDS011;469;48.770;9.176;2022-07-22T15:03:37;6.10;;;4.40;;
962;SDS011;469;48.770;9.176;2022-07-22T15:06:05;4.90;;;4.17;;
962;SDS011;469;48.770;9.176;2022-07-22T15:08:35;5.40;;;4.20;;
962;SDS011;469;48.770;9.176;2022-07-22T15:11:02;7.47;;;5.20;;
962;SDS011;469;48.770;9.176;2022-07-22T15:13:30;9.73;;;5.00;;
962;SDS011;469;48.770;9.176;2022-07-22T15:16:08;6.03;;;4.40;;
962;SDS011;469;48.770;9.176;2022-07-22T15:18:40;5.10;;;4.23;;
962;SDS011;469;48.770;9.176;2022-07-22T15:21:10;4.90;;;3.80;;
962;SDS011;469;48.770;9.176;2022-07-22T15:23:39;5.73;;;4.50;;
962;SDS011;469;48.770;9.176;2022-07-22T15:26:06;4.67;;;4.23;;
962;SDS011;469;48.770;9.176;2022-07-22T15:46:25;8.67;;;6.80;;
962;SDS011;469;48.770;9.176;2022-07-22T15:52:16;7.40;;;4.50;;
962;SDS011;469;48.770;9.176;2022-07-22T15:55:10;7.93;;;4.00;;
962;SDS011;469;48.770;9.176;2022-07-22T16:07:11;5.57;;;3.90;;
962;SDS011;469;48.770;9.176;2022-07-22T16:09:55;6.87;;;4.50;;
962;SDS011;469;48.770;9.176;2022-07-22T16:12:36;5.13;;;3.77;;
962;SDS011;469;48.770;9.176;2022-07-22T16:18:44;7.03;;;4.30;;
962;SDS011;469;48.770;9.176;2022-07-22T16:22:09;7.57;;;6.00;;
962;SDS011;469;48.770;9.176;2022-07-22T16:25:11;6.33;;;5.03;;
962;SDS011;469;48.770;9.176;2022-07-22T16:28:09;9.07;;;4.77;;
962;SDS011;469;48.770;9.176;2022-07-22T16:31:38;10.57;;;5.07;;
962;SDS011;469;48.770;9.176;2022-07-22T16:36:29;5.83;;;4.50;;
962;SDS011;469;48.770;9.176;2022-07-22T16:38:02;7.10;;;4.40;;
962;SDS011;469;48.770;9.176;2022-07-22T16:45:16;6.43;;;4.50;;
962;SDS011;469;48.770;9.176;2022-07-22T16:48:44;7.20;;;4.80;;
962;SDS011;469;48.770;9.176;2022-07-22T16:51:32;6.63;;;4.50;;
962;SDS011;469;48.770;9.176;2022-07-22T16:57:56;5.87;;;4.07;;
962;SDS011;469;48.770;9.176;2022-07-22T17:02:01;5.90;;;4.27;;
962;SDS011;469;48.770;9.176;2022-07-22T17:14:02;14.50;;;6.67;;
962;SDS011;469;48.770;9.176;2022-07-22T17:24:02;6.97;;;4.97;;
962;SDS011;469;48.770;9.176;2022-07-22T17:26:29;12.27;;;7.03;;
962;SDS011;469;48.770;9.176;2022-07-22T17:29:16;6.97;;;4.60;;
962;SDS011;469;48.770;9.176;2022-07-22T17:31:59;7.40;;;5.87;;
962;SDS011;469;48.770;9.176;2022-07-22T17:35:03;10.70;;;6.00;;
962;SDS011;469;48.770;9.176;2022-07-22T17:37:45;8.80;;;5.10;;
962;SDS011;469;48.770;9.176;2022-07-22T17:40:29;6.17;;;3.97;;
962;SDS011;469;48.770;9.176;2022-07-22T17:43:20;7.80;;;4.53;;
962;SDS011;469;48.770;9.176;2022-07-22T17:49:00;15.53;;;6.60;;
962;SDS011;469;48.770;9.176;2022-07-22T17:51:44;10.70;;;5.90;;
962;SDS011;469;48.770;9.176;2022-07-22T17:54:34;7.20;;;4.73;;
962;SDS011;469;48.770;9.176;2022-07-22T17:57:39;9.43;;;6.20;;
962;SDS011;469;48.770;9.176;2022-07-22T18:00:18;13.73;;;5.80;;
962;SDS011;469;48.770;9.176;2022-07-22T18:02:55;7.70;;;5.63;;
962;SDS011;469;48.770;9.176;2022-07-22T18:08:39;11.23;;;6.60;;
962;SDS011;469;48.770;9.176;2022-07-22T18:11:26;7.90;;;5.50;;
962;SDS011;469;48.770;9.176;2022-07-22T18:14:09;8.70;;;5.70;;
962;SDS011;469;48.770;9.176;2022-07-22T18:17:03;9.93;;;5.73;;
962;SDS011;469;48.770;9.176;2022-07-22T18:19:50;17.90;;;5.90;;
962;SDS011;469;48.770;9.176;2022-07-22T18:22:37;9.83;;;6.50;;